createdAt,value
2023-02-09T00:04:26.424Z,1.20
2023-02-09T00:09:30.087Z,1.20
2023-02-09T00:14:35.192Z,1.20
2023-02-09T00:19:39.691Z,1.10
2023-02-09T00:24:42.842Z,1.00
2023-02-09T00:29:48.374Z,1.00
2023-02-09T00:34:52.871Z,0.90
2023-02-09T00:39:55.962Z,0.80
2023-02-09T00:44:59.104Z,0.70
2023-02-09T00:50:06.671Z,0.70
2023-02-09T00:55:10.184Z,0.60
2023-02-09T01:00:15.876Z,0.60
2023-02-09T01:05:20.343Z,0.60
2023-02-09T01:10:23.549Z,0.50
2023-02-09T01:15:26.699Z,0.40
2023-02-09T01:20:31.165Z,0.40
2023-02-09T01:25:34.693Z,0.30
2023-02-09T01:30:37.863Z,0.30
2023-02-09T01:35:42.378Z,0.20
2023-02-09T01:40:48.793Z,0.20
2023-02-09T01:45:54.685Z,0.10
2023-02-09T01:51:02.077Z,0.10
2023-02-09T01:56:09.080Z,0.00
2023-02-09T02:01:12.742Z,0.00
2023-02-09T02:06:19.383Z,0.00
2023-02-09T02:11:24.708Z,-0.10
2023-02-09T02:16:44.368Z,-0.10
2023-02-09T02:22:35.552Z,-0.20
2023-02-09T02:27:46.493Z,-0.30
2023-02-09T02:33:12.773Z,-0.30
2023-02-09T02:38:22.631Z,-0.40
2023-02-09T02:43:38.893Z,-0.50
2023-02-09T02:48:47.929Z,-0.60
2023-02-09T02:53:55.280Z,-0.70
2023-02-09T02:59:00.523Z,-0.80
2023-02-09T03:04:07.463Z,-0.80
2023-02-09T03:09:10.860Z,-0.80
2023-02-09T03:14:26.652Z,-0.80
2023-02-09T03:19:42.025Z,-0.80
2023-02-09T03:24:51.943Z,-0.90
2023-02-09T03:30:01.021Z,-0.90
2023-02-09T03:35:06.913Z,-0.90
2023-02-09T03:40:10.944Z,-0.90
2023-02-09T03:45:14.065Z,-0.90
2023-02-09T03:50:18.979Z,-0.90
2023-02-09T03:55:22.091Z,-1.00
2023-02-09T04:00:25.342Z,-1.00
2023-02-09T04:05:29.859Z,-1.00
2023-02-09T04:10:32.956Z,-1.00
2023-02-09T04:15:36.574Z,-1.10
2023-02-09T04:20:41.102Z,-1.10
2023-02-09T04:25:44.285Z,-1.10
2023-02-09T04:30:52.221Z,-1.10
2023-02-09T04:35:56.754Z,-1.20
2023-02-09T04:41:01.486Z,-1.20
2023-02-09T04:46:04.801Z,-1.30
2023-02-09T04:51:09.326Z,-1.40
2023-02-09T04:56:15.656Z,-1.40
2023-02-09T05:01:24.391Z,-1.40
2023-02-09T05:06:28.881Z,-1.50
2023-02-09T05:11:32.004Z,-1.50
2023-02-09T05:16:35.159Z,-1.50
2023-02-09T05:21:39.795Z,-1.60
2023-02-09T05:26:43.510Z,-1.60
2023-02-09T05:31:46.692Z,-1.60
2023-02-09T05:36:51.280Z,-1.70
2023-02-09T05:42:11.603Z,-1.70
2023-02-09T05:47:18.286Z,-1.80
2023-02-09T05:52:22.893Z,-1.80
2023-02-09T05:57:25.990Z,-1.80
2023-02-09T06:02:29.173Z,-1.80
2023-02-09T06:07:33.866Z,-1.80
2023-02-09T06:12:36.952Z,-1.80
2023-02-09T06:17:40.112Z,-1.80
2023-02-09T06:22:47.312Z,-1.80
2023-02-09T06:27:50.474Z,-1.80
2023-02-09T06:32:53.715Z,-1.90
2023-02-09T06:38:00.589Z,-1.70
2023-02-09T06:43:03.742Z,-1.70
2023-02-09T06:48:07.499Z,-1.70
2023-02-09T06:53:14.622Z,-1.70
2023-02-09T06:58:20.348Z,-1.70
2023-02-09T07:03:23.558Z,-1.70
2023-02-09T07:08:28.124Z,-1.90
2023-02-09T07:13:31.973Z,-1.90
2023-02-09T07:18:35.471Z,-1.90
2023-02-09T07:23:40.332Z,-1.90
2023-02-09T07:28:43.815Z,-1.80
2023-02-09T07:33:47.561Z,-1.80
2023-02-09T07:38:52.377Z,-1.80
2023-02-09T07:43:57.111Z,-1.70
2023-02-09T07:49:01.511Z,-1.70
2023-02-09T07:54:08.575Z,-1.60
2023-02-09T07:59:12.358Z,-1.60
2023-02-09T08:04:15.618Z,-1.50
2023-02-09T08:09:20.097Z,-1.40
2023-02-09T08:14:27.159Z,-1.30
2023-02-09T08:19:30.345Z,-1.10
2023-02-09T08:24:35.018Z,-1.00
2023-02-09T08:29:38.221Z,-0.80
2023-02-09T08:34:41.311Z,-0.60
2023-02-09T08:39:46.043Z,-0.40
2023-02-09T08:44:49.217Z,-0.20
2023-02-09T08:49:52.299Z,0.10
2023-02-09T08:54:56.746Z,0.30
2023-02-09T08:59:59.846Z,0.50
2023-02-09T09:05:03.023Z,0.80
2023-02-09T09:10:09.450Z,1.00
2023-02-09T09:15:12.594Z,1.20
2023-02-09T09:20:15.770Z,1.40
2023-02-09T09:25:20.306Z,1.60
2023-02-09T09:30:23.381Z,1.80
2023-02-09T09:35:27.144Z,1.90
2023-02-09T09:40:34.298Z,2.10
2023-02-09T09:45:40.417Z,2.30
2023-02-09T09:50:44.648Z,2.50
2023-02-09T09:55:51.437Z,2.70
2023-02-09T10:00:55.099Z,2.90
2023-02-09T10:06:02.847Z,3.10
2023-02-09T10:11:11.024Z,3.20
2023-02-09T10:16:17.587Z,3.30
2023-02-09T10:21:21.475Z,3.50
2023-02-09T10:26:28.642Z,3.60
2023-02-09T10:31:35.062Z,3.80
2023-02-09T10:36:47.650Z,4.00
2023-02-09T10:41:54.042Z,4.20
2023-02-09T10:47:11.406Z,4.20
2023-02-09T10:52:19.980Z,4.40
2023-02-09T10:57:27.900Z,4.50
2023-02-09T11:02:36.640Z,4.60
2023-02-09T11:07:42.926Z,4.80
2023-02-09T11:12:48.287Z,4.90
2023-02-09T11:17:54.830Z,5.10
2023-02-09T11:23:40.112Z,5.20
2023-02-09T11:28:52.452Z,5.30
2023-02-09T11:34:05.151Z,5.40
2023-02-09T11:39:14.740Z,5.60
2023-02-09T11:44:28.765Z,5.70
2023-02-09T11:49:45.624Z,5.80
2023-02-09T11:54:53.909Z,5.80
2023-02-09T12:00:02.175Z,6.00
2023-02-09T12:05:06.737Z,6.10
2023-02-09T12:10:20.686Z,6.20
2023-02-09T12:15:27.829Z,6.20
2023-02-09T12:20:45.475Z,6.30
2023-02-09T12:25:54.586Z,6.30
2023-02-09T12:31:12.018Z,6.30
2023-02-09T12:36:30.241Z,6.40
2023-02-09T12:42:11.690Z,6.40
2023-02-09T12:47:56.527Z,6.50
2023-02-09T12:53:37.063Z,6.50
2023-02-09T12:58:54.119Z,6.50
2023-02-09T13:04:03.000Z,6.50
2023-02-09T13:09:10.565Z,6.60
2023-02-09T13:14:17.343Z,6.60
2023-02-09T13:19:50.424Z,6.60
2023-02-09T13:24:57.803Z,6.50
2023-02-09T13:30:00.984Z,6.50
2023-02-09T13:35:17.276Z,6.50
2023-02-09T13:40:23.955Z,6.60
2023-02-09T13:45:28.251Z,6.60
2023-02-09T13:50:33.594Z,6.70
2023-02-09T13:55:39.821Z,6.60
2023-02-09T14:00:45.379Z,6.60
2023-02-09T14:05:55.034Z,6.60
2023-02-09T14:11:03.893Z,6.60
2023-02-09T14:16:08.289Z,6.60
2023-02-09T14:21:22.614Z,6.50
2023-02-09T14:26:27.308Z,6.60
2023-02-09T14:31:30.578Z,6.60
2023-02-09T14:36:37.399Z,6.60
2023-02-09T14:41:40.891Z,6.60
2023-02-09T14:46:52.259Z,6.70
2023-02-09T14:52:04.683Z,6.60
2023-02-09T14:57:11.352Z,6.60
2023-02-09T15:02:19.394Z,6.60
2023-02-09T15:07:28.407Z,6.70
2023-02-09T15:12:31.669Z,6.70
2023-02-09T15:17:34.772Z,6.70
2023-02-09T15:22:39.245Z,6.70
2023-02-09T15:27:51.358Z,6.70
2023-02-09T15:32:55.245Z,6.60
2023-02-09T15:38:01.539Z,6.60
2023-02-09T15:43:31.289Z,6.60
2023-02-09T15:48:34.922Z,6.60
2023-02-09T15:53:40.232Z,6.50
2023-02-09T15:58:46.020Z,6.40
2023-02-09T16:03:49.153Z,6.30
2023-02-09T16:08:54.432Z,6.20
2023-02-09T16:13:57.540Z,6.10
2023-02-09T16:19:00.608Z,6.00
2023-02-09T16:24:07.503Z,5.80
2023-02-09T16:29:14.333Z,5.60
2023-02-09T16:34:17.432Z,5.40
2023-02-09T16:39:23.176Z,5.20
2023-02-09T16:44:30.440Z,5.10
2023-02-09T16:49:37.502Z,5.00
2023-02-09T16:54:45.637Z,5.00
2023-02-09T16:59:48.740Z,4.90
2023-02-09T17:04:51.948Z,4.90
2023-02-09T17:09:57.454Z,4.90
2023-02-09T17:15:00.700Z,4.90
2023-02-09T17:20:04.277Z,4.90
2023-02-09T17:25:15.496Z,4.90
2023-02-09T17:30:19.479Z,4.80
2023-02-09T17:35:44.577Z,4.80
2023-02-09T17:40:47.777Z,4.80
2023-02-09T17:45:51.776Z,4.80
2023-02-09T17:50:58.060Z,4.80
2023-02-09T17:56:03.159Z,4.70
2023-02-09T18:01:23.676Z,4.70
2023-02-09T18:06:34.362Z,4.70
2023-02-09T18:11:57.571Z,4.70
2023-02-09T18:17:01.329Z,4.70
2023-02-09T18:22:05.150Z,4.60
2023-02-09T18:27:10.460Z,4.60
2023-02-09T18:32:16.720Z,4.70
2023-02-09T18:37:19.958Z,4.50
2023-02-09T18:42:24.625Z,4.50
2023-02-09T18:47:28.207Z,4.50
2023-02-09T18:52:31.430Z,4.40
2023-02-09T18:57:36.710Z,4.30
2023-02-09T19:02:40.599Z,4.20
2023-02-09T19:07:44.587Z,4.20
2023-02-09T19:12:49.981Z,4.10
2023-02-09T19:17:55.188Z,4.00
2023-02-09T19:22:59.895Z,4.00
2023-02-09T19:28:04.397Z,4.10
2023-02-09T19:33:07.494Z,3.90
2023-02-09T19:38:10.601Z,3.90
2023-02-09T19:43:15.079Z,3.70
2023-02-09T19:48:18.366Z,3.80
2023-02-09T19:53:21.488Z,3.80
2023-02-09T19:58:26.416Z,3.70
2023-02-09T20:03:31.110Z,3.60
2023-02-09T20:08:34.252Z,3.50
2023-02-09T20:13:39.358Z,3.50
2023-02-09T20:18:43.523Z,3.50
2023-02-09T20:23:47.199Z,3.40
2023-02-09T20:28:52.059Z,3.30
2023-02-09T20:33:56.061Z,3.20
2023-02-09T20:38:59.257Z,3.20
2023-02-09T20:44:21.252Z,3.10
2023-02-09T20:49:25.906Z,3.10
2023-02-09T20:54:31.687Z,3.00
2023-02-09T20:59:36.211Z,3.00
2023-02-09T21:04:39.503Z,2.90
2023-02-09T21:09:44.196Z,2.80
2023-02-09T21:14:50.788Z,2.60
2023-02-09T21:19:53.932Z,2.50
2023-02-09T21:24:57.052Z,2.40
2023-02-09T21:30:02.161Z,2.30
2023-02-09T21:35:10.062Z,2.20
2023-02-09T21:40:13.813Z,2.10
2023-02-09T21:45:18.398Z,2.00
2023-02-09T21:50:22.280Z,2.00
2023-02-09T21:55:25.458Z,2.00
2023-02-09T22:00:30.769Z,2.00
2023-02-09T22:05:34.064Z,1.90
2023-02-09T22:10:37.265Z,1.80
2023-02-09T22:15:43.268Z,2.00
2023-02-09T22:20:48.501Z,1.80
2023-02-09T22:25:51.682Z,1.80
2023-02-09T22:30:56.970Z,1.80
2023-02-09T22:36:00.121Z,1.80
2023-02-09T22:41:07.314Z,1.80
2023-02-09T22:46:12.002Z,1.80
2023-02-09T22:51:17.700Z,1.80
2023-02-09T22:56:20.840Z,1.70
2023-02-09T23:01:25.421Z,1.70
2023-02-09T23:06:30.206Z,1.60
2023-02-09T23:11:33.426Z,1.50
2023-02-09T23:16:38.348Z,1.50
2023-02-09T23:21:43.363Z,1.60
2023-02-09T23:26:46.535Z,1.40
2023-02-09T23:31:51.168Z,1.40
2023-02-09T23:36:54.277Z,1.40
2023-02-09T23:41:57.346Z,1.40
2023-02-09T23:47:01.774Z,1.40
2023-02-09T23:52:04.993Z,1.30
2023-02-09T23:57:08.072Z,1.20
